createdAt,value
2019-03-19T00:00:32.141Z,39.10
2019-03-19T00:03:01.838Z,35.70
2019-03-19T00:05:31.391Z,33.85
2019-03-19T00:08:00.967Z,34.38
2019-03-19T00:10:30.524Z,33.40
2019-03-19T00:13:00.078Z,33.00
2019-03-19T00:15:29.673Z,31.85
2019-03-19T00:17:59.224Z,32.35
2019-03-19T00:20:28.801Z,32.20
2019-03-19T00:22:59.521Z,34.48
2019-03-19T00:25:30.533Z,33.33
2019-03-19T00:28:00.260Z,30.80
2019-03-19T00:30:29.855Z,30.48
2019-03-19T00:32:59.412Z,31.15
2019-03-19T00:35:28.980Z,29.75
2019-03-19T00:37:58.526Z,30.82
2019-03-19T00:40:28.080Z,31.68
2019-03-19T00:42:57.721Z,28.45
2019-03-19T00:45:27.264Z,29.82
2019-03-19T00:47:57.158Z,31.52
2019-03-19T00:50:26.696Z,32.50
2019-03-19T00:52:56.243Z,31.23
2019-03-19T00:55:25.826Z,28.98
2019-03-19T00:57:55.393Z,28.35
2019-03-19T01:00:25.341Z,30.40
2019-03-19T01:02:55.103Z,28.60
2019-03-19T01:05:24.654Z,29.87
2019-03-19T01:07:54.522Z,28.60
2019-03-19T01:10:24.080Z,29.23
2019-03-19T01:12:53.643Z,27.95
2019-03-19T01:15:23.246Z,28.35
2019-03-19T01:17:52.804Z,29.92
2019-03-19T01:20:22.374Z,26.60
2019-03-19T01:22:52.129Z,28.35
2019-03-19T01:25:21.665Z,27.32
2019-03-19T01:27:51.151Z,29.42
2019-03-19T01:30:20.753Z,27.90
2019-03-19T01:32:50.312Z,28.98
2019-03-19T01:35:19.868Z,27.90
2019-03-19T01:37:49.453Z,27.40
2019-03-19T01:40:19.010Z,25.77
2019-03-19T01:42:48.937Z,26.57
2019-03-19T01:45:19.301Z,25.77
2019-03-19T01:47:48.858Z,24.87
2019-03-19T01:50:18.708Z,25.82
2019-03-19T01:52:49.205Z,26.33
2019-03-19T01:55:18.808Z,24.95
2019-03-19T01:57:48.357Z,24.37
2019-03-19T02:00:18.824Z,23.98
2019-03-19T02:02:48.369Z,26.25
2019-03-19T02:05:17.922Z,25.50
2019-03-19T02:07:47.498Z,24.70
2019-03-19T02:10:17.061Z,23.60
2019-03-19T02:12:46.616Z,23.62
2019-03-19T02:15:17.070Z,23.35
2019-03-19T02:17:46.667Z,22.13
2019-03-19T02:20:17.159Z,23.02
2019-03-19T02:22:47.088Z,22.55
2019-03-19T02:25:18.179Z,19.62
2019-03-19T02:27:47.739Z,20.55
2019-03-19T02:30:17.522Z,21.95
2019-03-19T02:32:47.415Z,22.62
2019-03-19T02:35:16.965Z,23.18
2019-03-19T02:37:46.533Z,18.15
2019-03-19T02:40:16.850Z,19.77
2019-03-19T02:42:47.732Z,19.45
2019-03-19T02:45:17.283Z,19.12
2019-03-19T02:47:46.853Z,17.75
2019-03-19T02:50:18.155Z,17.92
2019-03-19T02:52:47.739Z,19.05
2019-03-19T02:55:17.312Z,18.20
2019-03-19T02:57:46.864Z,17.82
2019-03-19T03:00:17.420Z,16.60
2019-03-19T03:02:47.037Z,17.77
2019-03-19T03:05:18.559Z,18.00
2019-03-19T03:07:49.167Z,15.95
2019-03-19T03:10:18.695Z,16.73
2019-03-19T03:12:48.248Z,16.55
2019-03-19T03:15:17.826Z,17.17
2019-03-19T03:17:47.396Z,17.17
2019-03-19T03:20:17.289Z,18.35
2019-03-19T03:22:46.858Z,17.52
2019-03-19T03:25:17.350Z,16.17
2019-03-19T03:27:46.928Z,14.73
2019-03-19T03:30:23.195Z,15.63
2019-03-19T03:32:52.766Z,13.65
2019-03-19T03:35:22.419Z,16.45
2019-03-19T03:37:52.137Z,15.83
2019-03-19T03:40:21.685Z,16.50
2019-03-19T03:42:51.250Z,14.55
2019-03-19T03:45:20.855Z,14.73
2019-03-19T03:47:50.427Z,14.13
2019-03-19T03:50:19.963Z,15.05
2019-03-19T03:52:49.608Z,13.22
2019-03-19T03:55:20.204Z,16.62
2019-03-19T03:57:49.759Z,14.35
2019-03-19T04:00:22.453Z,15.38
2019-03-19T04:02:52.025Z,17.05
2019-03-19T04:05:21.576Z,14.78
2019-03-19T04:07:51.195Z,14.03
2019-03-19T04:10:21.148Z,13.13
2019-03-19T04:12:51.089Z,13.98
2019-03-19T04:15:20.674Z,15.70
2019-03-19T04:17:50.216Z,14.38
2019-03-19T04:20:19.792Z,13.65
2019-03-19T04:22:49.697Z,14.70
2019-03-19T04:25:20.276Z,14.70
2019-03-19T04:27:49.806Z,14.47
2019-03-19T04:30:20.109Z,14.70
2019-03-19T04:32:49.648Z,13.58
2019-03-19T04:35:19.188Z,14.07
2019-03-19T04:37:48.780Z,14.20
2019-03-19T04:40:18.317Z,12.25
2019-03-19T04:42:47.928Z,13.68
2019-03-19T04:45:17.715Z,13.05
2019-03-19T04:47:47.280Z,12.93
2019-03-19T04:50:17.338Z,13.85
2019-03-19T04:52:46.928Z,13.43
2019-03-19T04:55:17.091Z,11.90
2019-03-19T04:57:46.631Z,14.05
2019-03-19T05:00:17.118Z,12.23
2019-03-19T05:02:47.247Z,11.73
2019-03-19T05:05:16.807Z,13.80
2019-03-19T05:07:48.219Z,12.88
2019-03-19T05:10:18.376Z,12.47
2019-03-19T05:12:47.903Z,11.15
2019-03-19T05:15:18.610Z,11.08
2019-03-19T05:17:48.521Z,12.03
2019-03-19T05:20:19.663Z,11.95
2019-03-19T05:22:49.202Z,12.05
2019-03-19T05:25:19.128Z,13.80
2019-03-19T05:27:48.743Z,12.78
2019-03-19T05:30:19.191Z,10.82
2019-03-19T05:32:48.769Z,10.88
2019-03-19T05:35:18.354Z,11.50
2019-03-19T05:37:47.916Z,12.33
2019-03-19T05:40:17.760Z,11.15
2019-03-19T05:42:47.680Z,12.25
2019-03-19T05:45:17.214Z,11.80
2019-03-19T05:47:46.759Z,12.05
2019-03-19T05:50:18.060Z,10.90
2019-03-19T05:52:48.627Z,10.50
2019-03-19T05:55:18.424Z,11.60
2019-03-19T05:57:49.976Z,10.95
2019-03-19T06:00:21.706Z,10.65
2019-03-19T06:02:51.260Z,11.43
2019-03-19T06:05:21.323Z,10.18
2019-03-19T06:07:52.220Z,10.45
2019-03-19T06:10:21.785Z,9.95
2019-03-19T06:12:51.353Z,9.83
2019-03-19T06:15:20.918Z,9.75
2019-03-19T06:17:50.526Z,10.82
2019-03-19T06:20:20.624Z,10.53
2019-03-19T06:22:50.233Z,10.30
2019-03-19T06:25:19.811Z,9.28
2019-03-19T06:27:59.576Z,9.93
2019-03-19T06:30:24.077Z,12.10
2019-03-19T06:32:53.629Z,9.55
2019-03-19T06:35:23.189Z,9.63
2019-03-19T06:37:53.097Z,9.88
2019-03-19T06:40:23.043Z,9.18
2019-03-19T06:42:52.589Z,10.93
2019-03-19T06:45:23.185Z,10.60
2019-03-19T06:47:53.237Z,9.83
2019-03-19T06:50:22.764Z,10.03
2019-03-19T06:52:52.867Z,9.83
2019-03-19T06:55:22.473Z,9.48
2019-03-19T06:57:51.987Z,9.55
2019-03-19T07:00:22.854Z,12.78
2019-03-19T07:02:52.363Z,9.53
2019-03-19T07:05:22.245Z,10.60
2019-03-19T07:07:51.830Z,10.88
2019-03-19T07:10:21.763Z,8.73
2019-03-19T07:12:51.321Z,8.95
2019-03-19T07:15:23.266Z,8.90
2019-03-19T07:17:52.805Z,11.22
2019-03-19T07:20:29.572Z,9.38
2019-03-19T07:22:59.422Z,11.78
2019-03-19T07:25:28.975Z,10.38
2019-03-19T07:27:58.552Z,9.38
2019-03-19T07:30:28.322Z,7.87
2019-03-19T07:32:57.861Z,9.50
2019-03-19T07:35:27.445Z,7.55
2019-03-19T07:37:57.271Z,10.45
2019-03-19T07:40:26.818Z,11.57
2019-03-19T07:42:56.314Z,9.35
2019-03-19T07:45:26.064Z,8.50
2019-03-19T07:47:55.651Z,7.33
2019-03-19T07:50:25.187Z,8.95
2019-03-19T07:52:54.738Z,9.90
2019-03-19T07:55:24.385Z,12.73
2019-03-19T07:57:54.209Z,11.38
2019-03-19T08:00:23.790Z,9.93
2019-03-19T08:02:53.333Z,7.47
2019-03-19T08:05:32.658Z,9.83
2019-03-19T08:07:54.779Z,8.25
2019-03-19T08:10:24.312Z,6.58
2019-03-19T08:12:53.921Z,6.90
2019-03-19T08:15:23.481Z,9.63
2019-03-19T08:17:53.227Z,8.55
2019-03-19T08:20:22.987Z,9.08
2019-03-19T08:22:52.550Z,11.53
2019-03-19T08:25:22.097Z,7.62
2019-03-19T08:27:51.562Z,8.98
2019-03-19T08:30:24.191Z,7.83
2019-03-19T08:32:53.520Z,7.25
2019-03-19T08:35:23.062Z,9.58
2019-03-19T08:37:52.933Z,8.50
2019-03-19T08:40:22.490Z,8.20
2019-03-19T08:42:52.061Z,7.90
2019-03-19T08:45:23.686Z,7.08
2019-03-19T08:47:53.227Z,9.33
2019-03-19T08:50:23.520Z,8.68
2019-03-19T08:52:55.399Z,7.80
2019-03-19T08:55:24.713Z,7.75
2019-03-19T08:57:54.266Z,8.50
2019-03-19T09:00:28.482Z,8.08
2019-03-19T09:02:58.048Z,7.85
2019-03-19T09:05:27.605Z,7.85
2019-03-19T09:07:57.146Z,7.87
2019-03-19T09:10:26.713Z,8.78
2019-03-19T09:12:56.360Z,7.37
2019-03-19T09:15:29.056Z,8.28
2019-03-19T09:17:58.622Z,8.73
2019-03-19T09:20:28.158Z,8.03
2019-03-19T09:22:57.713Z,7.42
2019-03-19T09:25:27.265Z,6.47
2019-03-19T09:27:56.973Z,6.37
2019-03-19T09:30:27.513Z,7.17
2019-03-19T09:32:57.066Z,7.08
2019-03-19T09:35:26.639Z,8.08
2019-03-19T09:37:58.753Z,7.87
2019-03-19T09:40:27.799Z,7.28
2019-03-19T09:42:57.325Z,5.95
2019-03-19T09:45:26.897Z,7.62
2019-03-19T09:47:56.459Z,6.05
2019-03-19T09:50:26.516Z,8.05
2019-03-19T09:52:56.112Z,5.85
2019-03-19T09:55:25.619Z,6.05
2019-03-19T09:57:55.519Z,6.75
2019-03-19T10:00:25.068Z,7.72
2019-03-19T10:02:54.623Z,6.92
2019-03-19T10:05:24.185Z,6.67
2019-03-19T10:07:55.560Z,6.33
2019-03-19T10:10:25.302Z,6.60
2019-03-19T10:12:54.814Z,9.08
2019-03-19T10:15:24.374Z,6.00
2019-03-19T10:17:53.923Z,6.83
2019-03-19T10:20:25.330Z,7.95
2019-03-19T10:22:55.040Z,5.08
2019-03-19T10:25:24.586Z,5.45
2019-03-19T10:27:55.130Z,5.25
2019-03-19T10:30:24.910Z,6.42
2019-03-19T10:32:54.449Z,5.05
2019-03-19T10:35:23.971Z,5.28
2019-03-19T10:37:53.505Z,4.95
2019-03-19T10:40:23.048Z,4.92
2019-03-19T10:42:52.590Z,4.75
2019-03-19T10:45:25.380Z,5.28
2019-03-19T10:47:55.044Z,5.42
2019-03-19T10:50:25.386Z,4.60
2019-03-19T10:52:54.938Z,4.53
2019-03-19T10:55:25.363Z,4.97
2019-03-19T10:57:54.913Z,5.62
2019-03-19T11:00:25.355Z,6.60
2019-03-19T11:02:54.905Z,4.55
2019-03-19T11:05:25.047Z,4.92
2019-03-19T11:07:54.985Z,4.03
2019-03-19T11:10:24.524Z,5.67
2019-03-19T11:12:54.189Z,5.17
2019-03-19T11:15:27.421Z,4.70
2019-03-19T11:17:57.024Z,4.58
2019-03-19T11:20:26.931Z,4.45
2019-03-19T11:22:56.818Z,4.55
2019-03-19T11:25:28.546Z,4.35
2019-03-19T11:27:58.108Z,5.53
2019-03-19T11:30:31.163Z,5.58
2019-03-19T11:33:00.715Z,5.92
2019-03-19T11:35:30.270Z,5.05
2019-03-19T11:37:59.810Z,5.83
2019-03-19T11:40:29.377Z,4.97
2019-03-19T11:42:58.961Z,5.75
2019-03-19T11:45:28.509Z,4.75
2019-03-19T11:47:58.050Z,6.35
2019-03-19T11:50:33.752Z,8.55
2019-03-19T11:53:04.254Z,6.00
2019-03-19T11:55:33.784Z,4.25
2019-03-19T11:58:03.366Z,4.12
2019-03-19T12:00:34.494Z,5.65
2019-03-19T12:03:14.881Z,6.10
2019-03-19T12:05:35.818Z,4.10
2019-03-19T12:08:06.761Z,3.67
2019-03-19T12:10:36.384Z,4.50
2019-03-19T12:13:05.916Z,3.50
2019-03-19T12:15:35.457Z,5.08
2019-03-19T12:18:05.615Z,4.85
2019-03-19T12:20:35.587Z,4.83
2019-03-19T12:23:05.546Z,2.55
2019-03-19T12:25:35.090Z,3.87
2019-03-19T12:28:05.203Z,6.40
2019-03-19T12:30:34.749Z,4.05
2019-03-19T12:33:04.615Z,5.60
2019-03-19T12:35:34.198Z,3.75
2019-03-19T12:38:03.742Z,11.75
2019-03-19T12:40:37.203Z,3.02
2019-03-19T12:43:04.567Z,3.90
2019-03-19T12:45:34.115Z,4.10
2019-03-19T12:48:03.718Z,3.85
2019-03-19T12:50:33.278Z,3.45
2019-03-19T12:53:02.833Z,3.55
2019-03-19T12:55:32.382Z,3.72
2019-03-19T12:58:04.295Z,6.60
2019-03-19T13:00:35.018Z,5.20
2019-03-19T13:03:04.943Z,4.50
2019-03-19T13:05:34.552Z,6.92
2019-03-19T13:08:04.082Z,5.40
2019-03-19T13:10:33.562Z,5.05
2019-03-19T13:13:03.117Z,4.17
2019-03-19T13:15:32.681Z,3.17
2019-03-19T13:18:02.261Z,4.58
2019-03-19T13:20:31.806Z,4.22
2019-03-19T13:23:01.371Z,4.22
2019-03-19T13:25:30.911Z,3.05
2019-03-19T13:28:00.471Z,4.00
2019-03-19T13:30:31.159Z,3.65
2019-03-19T13:33:02.599Z,3.55
2019-03-19T13:35:32.501Z,3.75
2019-03-19T13:38:02.047Z,5.78
2019-03-19T13:40:31.597Z,4.22
2019-03-19T13:43:01.153Z,3.72
2019-03-19T13:45:30.703Z,4.80
2019-03-19T13:48:00.268Z,3.98
2019-03-19T13:50:29.826Z,3.58
2019-03-19T13:52:59.370Z,4.40
2019-03-19T13:55:28.944Z,4.20
2019-03-19T13:57:58.611Z,2.80
2019-03-19T14:00:29.057Z,4.17
2019-03-19T14:02:59.367Z,4.12
2019-03-19T14:05:28.987Z,4.30
2019-03-19T14:07:58.856Z,4.85
2019-03-19T14:10:29.333Z,5.03
2019-03-19T14:12:58.897Z,3.72
2019-03-19T14:15:28.781Z,3.77
2019-03-19T14:17:59.212Z,3.83
2019-03-19T14:20:28.758Z,4.65
2019-03-19T14:22:58.315Z,3.42
2019-03-19T14:25:27.909Z,4.35
2019-03-19T14:27:57.748Z,6.47
2019-03-19T14:30:27.289Z,5.97
2019-03-19T14:32:56.857Z,9.05
2019-03-19T14:35:36.613Z,7.42
2019-03-19T14:37:57.893Z,5.83
2019-03-19T14:40:27.429Z,5.05
2019-03-19T14:43:00.047Z,7.05
2019-03-19T14:45:28.427Z,7.45
2019-03-19T14:47:58.276Z,12.53
2019-03-19T14:50:27.863Z,21.05
2019-03-19T14:52:57.407Z,14.25
2019-03-19T14:55:26.975Z,15.32
2019-03-19T14:57:56.517Z,12.35
2019-03-19T15:00:26.074Z,10.63
2019-03-19T15:02:56.011Z,10.32
2019-03-19T15:05:25.546Z,10.72
2019-03-19T15:07:55.479Z,11.20
2019-03-19T15:10:25.022Z,8.90
2019-03-19T15:12:54.603Z,9.10
2019-03-19T15:15:24.508Z,9.18
2019-03-19T15:17:54.058Z,10.90
2019-03-19T15:20:25.711Z,9.78
2019-03-19T15:22:55.256Z,7.65
2019-03-19T15:25:24.821Z,8.80
2019-03-19T15:27:54.680Z,9.20
2019-03-19T15:30:24.222Z,8.15
2019-03-19T15:32:54.180Z,7.83
2019-03-19T15:35:23.724Z,7.20
2019-03-19T15:37:53.369Z,8.75
2019-03-19T15:40:22.915Z,8.98
2019-03-19T15:42:52.819Z,8.35
2019-03-19T15:45:24.652Z,8.40
2019-03-19T15:47:54.191Z,8.43
2019-03-19T15:50:24.667Z,6.33
2019-03-19T15:52:54.221Z,8.38
2019-03-19T15:55:23.765Z,7.25
2019-03-19T15:57:53.343Z,6.87
2019-03-19T16:00:22.983Z,8.35
2019-03-19T16:02:52.506Z,8.95
2019-03-19T16:05:22.070Z,8.60
2019-03-19T16:07:51.604Z,7.50
2019-03-19T16:10:22.583Z,8.85
2019-03-19T16:12:52.139Z,8.05
2019-03-19T16:15:22.764Z,9.00
2019-03-19T16:17:52.319Z,12.75
2019-03-19T16:20:22.581Z,9.58
2019-03-19T16:22:52.125Z,9.13
2019-03-19T16:25:21.706Z,11.28
2019-03-19T16:27:52.142Z,9.75
2019-03-19T16:30:21.712Z,9.25
2019-03-19T16:32:51.269Z,9.50
2019-03-19T16:35:20.807Z,10.32
2019-03-19T16:37:50.383Z,8.80
2019-03-19T16:40:21.882Z,8.00
2019-03-19T16:42:51.419Z,9.78
2019-03-19T16:45:20.993Z,8.40
2019-03-19T16:47:50.882Z,8.93
2019-03-19T16:50:21.363Z,8.33
2019-03-19T16:52:50.956Z,8.00
2019-03-19T16:55:22.204Z,8.23
2019-03-19T16:57:52.092Z,8.33
2019-03-19T17:00:27.032Z,8.03
2019-03-19T17:02:56.597Z,11.75
2019-03-19T17:05:26.143Z,7.58
2019-03-19T17:07:55.678Z,10.10
2019-03-19T17:10:32.824Z,10.03
2019-03-19T17:13:02.386Z,9.78
2019-03-19T17:15:31.959Z,9.58
2019-03-19T17:18:01.530Z,10.53
2019-03-19T17:20:31.561Z,8.90
2019-03-19T17:23:01.218Z,8.00
2019-03-19T17:25:30.762Z,8.43
2019-03-19T17:28:00.623Z,8.33
2019-03-19T17:30:35.533Z,8.18
2019-03-19T17:33:05.090Z,9.23
2019-03-19T17:35:34.684Z,10.18
2019-03-19T17:38:04.177Z,9.55
2019-03-19T17:40:41.434Z,10.05
2019-03-19T17:43:05.228Z,11.03
2019-03-19T17:45:34.813Z,10.53
2019-03-19T17:48:15.467Z,10.40
2019-03-19T17:50:38.596Z,11.15
2019-03-19T17:53:08.142Z,10.30
2019-03-19T17:55:37.695Z,11.60
2019-03-19T17:58:07.539Z,11.93
2019-03-19T18:00:44.661Z,17.73
2019-03-19T18:03:15.016Z,16.07
2019-03-19T18:05:44.977Z,11.53
2019-03-19T18:08:14.534Z,12.00
2019-03-19T18:10:44.125Z,14.03
2019-03-19T18:13:13.694Z,16.40
2019-03-19T18:15:43.245Z,13.75
2019-03-19T18:18:12.805Z,12.30
2019-03-19T18:20:42.347Z,12.75
2019-03-19T18:23:12.338Z,13.35
2019-03-19T18:25:41.836Z,14.63
2019-03-19T18:28:12.392Z,14.85
2019-03-19T18:30:41.942Z,17.07
2019-03-19T18:33:11.507Z,27.55
2019-03-19T18:35:41.399Z,21.12
2019-03-19T18:38:11.170Z,20.65
2019-03-19T18:40:40.734Z,19.50
2019-03-19T18:43:10.638Z,20.77
2019-03-19T18:45:40.518Z,17.87
2019-03-19T18:48:11.618Z,19.57
2019-03-19T18:50:41.578Z,21.73
2019-03-19T18:53:11.410Z,24.40
2019-03-19T18:55:40.978Z,31.68
2019-03-19T18:58:10.523Z,33.15
2019-03-19T19:00:40.093Z,28.95
2019-03-19T19:03:09.919Z,29.57
2019-03-19T19:05:39.474Z,49.33
2019-03-19T19:08:09.068Z,43.75
2019-03-19T19:10:39.155Z,33.58
2019-03-19T19:13:09.110Z,32.93
2019-03-19T19:15:38.651Z,34.35
2019-03-19T19:18:09.764Z,30.55
2019-03-19T19:20:39.362Z,32.03
2019-03-19T19:23:12.001Z,27.73
2019-03-19T19:25:42.331Z,25.30
2019-03-19T19:28:11.917Z,27.15
2019-03-19T19:30:41.862Z,25.80
2019-03-19T19:33:11.415Z,27.25
2019-03-19T19:35:40.967Z,23.42
2019-03-19T19:38:10.585Z,19.92
2019-03-19T19:40:41.262Z,21.10
2019-03-19T19:43:10.867Z,23.20
2019-03-19T19:45:41.990Z,20.20
2019-03-19T19:48:13.647Z,22.15
2019-03-19T19:50:43.639Z,22.40
2019-03-19T19:53:15.791Z,25.85
2019-03-19T19:55:45.184Z,23.07
2019-03-19T19:58:15.053Z,23.40
2019-03-19T20:00:44.651Z,22.00
2019-03-19T20:03:14.213Z,25.10
2019-03-19T20:05:43.767Z,26.30
2019-03-19T20:08:14.478Z,24.02
2019-03-19T20:10:44.447Z,26.90
2019-03-19T20:13:14.105Z,26.10
2019-03-19T20:15:43.678Z,24.37
2019-03-19T20:18:14.816Z,23.70
2019-03-19T20:20:44.770Z,24.18
2019-03-19T20:23:14.399Z,24.02
2019-03-19T20:25:43.971Z,22.93
2019-03-19T20:28:13.510Z,23.98
2019-03-19T20:30:43.340Z,22.45
2019-03-19T20:33:24.222Z,23.30
2019-03-19T20:35:44.218Z,26.15
2019-03-19T20:38:13.799Z,24.80
2019-03-19T20:40:43.346Z,26.10
2019-03-19T20:43:12.887Z,27.73
2019-03-19T20:45:42.600Z,31.27
2019-03-19T20:51:09.491Z,30.35
2019-03-19T20:53:39.065Z,30.08
2019-03-19T20:56:08.638Z,32.50
2019-03-19T20:58:43.570Z,32.00
2019-03-19T21:01:09.509Z,34.43
2019-03-19T21:03:39.097Z,32.13
2019-03-19T21:06:10.025Z,32.78
2019-03-19T21:08:39.967Z,30.77
2019-03-19T21:11:09.514Z,31.05
2019-03-19T21:13:39.514Z,30.55
2019-03-19T21:16:09.047Z,33.20
2019-03-19T21:18:38.609Z,32.30
2019-03-19T21:21:08.288Z,32.73
2019-03-19T21:23:37.855Z,33.35
2019-03-19T21:26:07.849Z,36.77
2019-03-19T21:28:37.405Z,37.73
2019-03-19T21:31:08.127Z,34.15
2019-03-19T21:33:37.654Z,36.63
2019-03-19T21:36:07.226Z,34.92
2019-03-19T21:38:36.786Z,32.10
2019-03-19T21:41:06.363Z,32.80
2019-03-19T21:43:36.047Z,32.25
2019-03-19T21:46:05.605Z,34.48
2019-03-19T21:48:35.172Z,32.48
2019-03-19T21:51:05.001Z,34.38
2019-03-19T21:53:34.558Z,33.78
2019-03-19T21:56:04.173Z,31.60
2019-03-19T21:58:33.776Z,30.05
2019-03-19T22:01:03.332Z,29.32
2019-03-19T22:03:34.006Z,29.65
2019-03-19T22:06:03.569Z,29.52
2019-03-19T22:08:33.149Z,33.85
2019-03-19T22:11:02.741Z,30.32
2019-03-19T22:13:32.637Z,29.67
2019-03-19T22:16:02.556Z,30.92
2019-03-19T22:18:32.095Z,32.03
2019-03-19T22:21:01.686Z,30.72
2019-03-19T22:23:31.499Z,29.05
2019-03-19T22:26:01.168Z,26.90
2019-03-19T22:28:30.732Z,30.62
2019-03-19T22:31:00.309Z,26.35
2019-03-19T22:33:33.651Z,26.93
2019-03-19T22:36:01.438Z,28.50
2019-03-19T22:38:31.089Z,26.23
2019-03-19T22:41:00.962Z,27.42
2019-03-19T22:43:30.522Z,28.15
2019-03-19T22:46:00.094Z,28.20
2019-03-19T22:48:29.998Z,27.25
2019-03-19T22:51:00.658Z,30.85
2019-03-19T22:53:31.366Z,28.90
2019-03-19T22:56:01.107Z,28.95
2019-03-19T22:58:30.643Z,27.40
2019-03-19T23:01:00.314Z,29.90
2019-03-19T23:03:31.462Z,27.40
2019-03-19T23:06:01.001Z,29.37
2019-03-19T23:08:30.602Z,28.85
2019-03-19T23:11:00.533Z,28.98
2019-03-19T23:13:30.101Z,30.70
2019-03-19T23:15:59.663Z,30.20
2019-03-19T23:18:29.357Z,32.40
2019-03-19T23:20:58.933Z,32.53
2019-03-19T23:23:28.482Z,33.63
2019-03-19T23:25:58.378Z,33.02
2019-03-19T23:28:27.949Z,33.53
2019-03-19T23:30:57.508Z,35.05
2019-03-19T23:33:27.100Z,36.40
2019-03-19T23:35:56.656Z,35.00
2019-03-19T23:38:26.221Z,35.08
2019-03-19T23:40:55.782Z,35.10
2019-03-19T23:43:26.443Z,35.10
2019-03-19T23:45:57.057Z,38.55
2019-03-19T23:48:26.597Z,40.17
2019-03-19T23:50:57.254Z,40.38
2019-03-19T23:53:28.010Z,38.80
2019-03-19T23:55:57.576Z,37.73
2019-03-19T23:58:27.165Z,38.90
